createdAt,value
2017-10-07T00:01:43.588Z,1.20
2017-10-07T00:04:12.268Z,1.53
2017-10-07T00:06:39.926Z,1.10
2017-10-07T00:09:07.595Z,1.13
2017-10-07T00:11:35.311Z,1.23
2017-10-07T00:14:02.965Z,0.57
2017-10-07T00:16:30.625Z,1.30
2017-10-07T00:18:58.347Z,0.63
2017-10-07T00:21:25.996Z,0.50
2017-10-07T00:23:53.650Z,0.33
2017-10-07T00:26:22.202Z,0.30
2017-10-07T00:28:49.863Z,0.30
2017-10-07T00:31:17.512Z,1.10
2017-10-07T00:33:45.221Z,0.40
2017-10-07T00:36:13.725Z,2.03
2017-10-07T00:38:41.393Z,1.03
2017-10-07T00:41:10.091Z,0.30
2017-10-07T00:43:37.737Z,0.77
2017-10-07T00:46:05.402Z,0.20
2017-10-07T00:48:33.116Z,0.77
2017-10-07T00:53:39.941Z,0.60
2017-10-07T00:56:07.596Z,0.87
2017-10-07T00:58:35.257Z,0.40
2017-10-07T01:01:02.978Z,0.60
2017-10-07T01:03:30.622Z,2.00
2017-10-07T01:05:58.290Z,0.43
2017-10-07T01:08:26.020Z,0.40
2017-10-07T01:10:53.665Z,0.30
2017-10-07T01:13:21.326Z,0.20
2017-10-07T01:15:49.040Z,0.20
2017-10-07T01:18:16.693Z,0.30
2017-10-07T01:20:44.353Z,0.30
2017-10-07T01:23:12.069Z,0.40
2017-10-07T01:25:40.594Z,0.50
2017-10-07T01:28:08.259Z,0.40
2017-10-07T01:30:36.825Z,1.50
2017-10-07T01:33:04.480Z,0.37
2017-10-07T01:35:32.139Z,2.00
2017-10-07T01:37:59.863Z,0.47
2017-10-07T01:40:27.510Z,0.53
2017-10-07T01:42:55.160Z,0.47
2017-10-07T01:45:22.879Z,0.40
2017-10-07T01:47:50.537Z,1.33
2017-10-07T01:50:18.196Z,1.80
2017-10-07T01:52:45.908Z,0.40
2017-10-07T01:55:13.558Z,0.77
2017-10-07T01:57:41.213Z,1.13
2017-10-07T02:00:08.949Z,1.00
2017-10-07T02:02:37.320Z,2.97
2017-10-07T02:05:04.982Z,0.80
2017-10-07T02:07:33.724Z,2.37
2017-10-07T02:10:01.373Z,1.70
2017-10-07T02:12:29.032Z,0.83
2017-10-07T02:14:56.745Z,1.67
2017-10-07T02:20:03.599Z,1.35
2017-10-07T02:22:31.243Z,1.80
2017-10-07T02:24:58.905Z,2.00
2017-10-07T02:27:26.614Z,2.40
2017-10-07T02:29:54.263Z,5.50
2017-10-07T02:32:21.929Z,3.23
2017-10-07T02:34:49.636Z,4.57
2017-10-07T02:37:18.117Z,3.53
2017-10-07T02:39:45.773Z,3.47
2017-10-07T02:42:17.012Z,6.40
2017-10-07T02:44:44.659Z,3.47
2017-10-07T02:47:12.316Z,3.00
2017-10-07T02:49:40.035Z,3.20
2017-10-07T02:52:07.682Z,2.93
2017-10-07T02:54:35.339Z,2.63
2017-10-07T02:57:03.051Z,3.73
2017-10-07T02:59:30.704Z,3.53
2017-10-07T03:01:58.378Z,2.67
2017-10-07T03:04:26.129Z,2.13
2017-10-07T03:06:53.776Z,4.47
2017-10-07T03:09:21.455Z,3.57
2017-10-07T03:11:49.172Z,2.87
2017-10-07T03:14:16.837Z,2.20
2017-10-07T03:16:44.486Z,1.77
2017-10-07T03:19:13.058Z,1.53
2017-10-07T03:21:41.562Z,0.80
2017-10-07T03:24:09.234Z,1.00
2017-10-07T03:26:36.951Z,1.87
2017-10-07T03:29:04.604Z,1.87
2017-10-07T03:31:32.275Z,2.73
2017-10-07T03:33:59.996Z,2.47
2017-10-07T03:36:27.649Z,3.43
2017-10-07T03:38:55.301Z,3.90
2017-10-07T03:44:02.953Z,4.60
2017-10-07T03:46:30.684Z,4.90
2017-10-07T03:48:58.341Z,5.60
2017-10-07T03:51:26.814Z,7.67
2017-10-07T03:53:54.527Z,6.50
2017-10-07T03:56:22.180Z,5.33
2017-10-07T03:58:49.840Z,5.43
2017-10-07T04:01:17.558Z,5.00
2017-10-07T04:03:45.209Z,4.27
2017-10-07T04:06:12.876Z,5.00
2017-10-07T04:08:40.599Z,8.07
2017-10-07T04:11:09.212Z,8.90
2017-10-07T04:13:36.859Z,6.40
2017-10-07T19:10:21.246Z,2.23
2017-10-07T19:13:33.814Z,2.97
2017-10-07T19:16:02.252Z,2.83
2017-10-07T19:18:30.351Z,4.27
2017-10-07T19:20:58.433Z,5.37
2017-10-07T19:23:27.857Z,4.23
2017-10-07T19:25:55.762Z,3.03
2017-10-07T19:28:23.886Z,3.23
2017-10-07T19:30:54.389Z,2.63
2017-10-07T19:33:22.789Z,3.63
2017-10-07T19:35:50.823Z,6.70
2017-10-07T19:38:19.303Z,3.17
2017-10-07T19:40:47.410Z,2.83
2017-10-07T19:43:15.479Z,3.73
2017-10-07T19:45:43.704Z,4.10
2017-10-07T19:48:11.303Z,1.90
2017-10-07T19:53:17.792Z,4.47
2017-10-07T19:55:45.503Z,3.17
2017-10-07T19:58:13.150Z,4.57
2017-10-07T20:00:41.547Z,5.33
2017-10-07T20:03:08.518Z,2.40
2017-10-07T20:05:36.175Z,3.67
2017-10-07T20:08:04.603Z,3.57
2017-10-07T20:10:32.133Z,2.73
2017-10-07T20:12:59.793Z,4.40
2017-10-07T20:15:27.496Z,2.37
2017-10-07T20:17:55.180Z,2.70
2017-10-07T20:20:22.840Z,3.43
2017-10-07T20:22:50.556Z,2.30
2017-10-07T20:25:18.197Z,4.83
2017-10-07T20:27:45.841Z,1.80
2017-10-07T20:30:13.581Z,2.10
2017-10-07T20:32:41.254Z,5.10
2017-10-07T20:35:08.890Z,2.47
2017-10-07T20:37:36.603Z,2.43
2017-10-07T20:40:04.268Z,2.60
2017-10-07T20:42:31.920Z,4.90
2017-10-07T20:44:59.638Z,7.60
2017-10-07T20:47:27.302Z,4.93
2017-10-07T20:49:55.352Z,3.17
2017-10-07T20:52:23.506Z,7.93
2017-10-07T20:54:52.220Z,9.80
2017-10-07T20:57:19.944Z,5.50
2017-10-07T20:59:48.242Z,7.27
2017-10-07T21:04:55.174Z,5.35
2017-10-07T21:07:22.821Z,5.00
2017-10-07T21:09:50.794Z,3.27
2017-10-07T21:12:18.459Z,2.83
2017-10-07T21:14:46.112Z,9.10
2017-10-07T21:17:13.824Z,6.30
2017-10-07T21:19:41.532Z,7.00
2017-10-07T21:22:09.197Z,8.27
2017-10-07T21:24:36.854Z,7.23
2017-10-07T21:27:05.537Z,8.90
2017-10-07T21:29:33.207Z,3.53
2017-10-07T21:32:00.914Z,5.27
2017-10-07T21:34:28.594Z,5.90
2017-10-07T21:36:56.260Z,4.00
2017-10-07T21:39:23.922Z,6.53
2017-10-07T21:41:51.631Z,6.30
2017-10-07T21:44:19.522Z,4.87
2017-10-07T21:46:47.071Z,2.70
2017-10-07T21:49:14.819Z,3.50
2017-10-07T21:51:42.451Z,3.43
2017-10-07T21:54:10.090Z,3.43
2017-10-07T21:56:37.798Z,2.23
2017-10-07T21:59:05.462Z,3.60
2017-10-07T22:01:33.098Z,3.17
2017-10-07T22:04:01.004Z,3.80
2017-10-07T22:06:28.494Z,8.20
2017-10-07T22:08:56.142Z,3.10
2017-10-07T22:11:23.865Z,3.97
2017-10-07T22:13:51.495Z,3.20
2017-10-07T22:16:19.145Z,5.73
2017-10-07T22:18:46.865Z,2.37
2017-10-07T22:21:14.503Z,4.87
2017-10-07T22:26:23.314Z,7.90
2017-10-07T22:28:51.889Z,5.60
2017-10-07T22:31:19.525Z,8.60
2017-10-07T22:33:47.231Z,4.03
2017-10-07T22:36:14.858Z,6.33
2017-10-07T22:38:42.499Z,4.80
2017-10-07T22:41:10.202Z,8.47
2017-10-07T22:43:37.838Z,8.03
2017-10-07T22:46:05.482Z,5.03
2017-10-07T22:48:33.175Z,7.97
2017-10-07T22:51:00.809Z,4.90
2017-10-07T22:53:28.438Z,6.93
2017-10-07T22:55:56.137Z,6.47
2017-10-07T22:58:23.771Z,5.33
2017-10-07T23:00:51.422Z,3.73
2017-10-07T23:03:19.139Z,8.07
2017-10-07T23:05:47.706Z,3.43
2017-10-07T23:08:15.337Z,3.43
2017-10-07T23:10:43.038Z,3.40
2017-10-07T23:13:10.679Z,5.73
2017-10-07T23:15:38.312Z,3.93
2017-10-07T23:18:06.038Z,3.30
2017-10-07T23:20:33.732Z,2.47
2017-10-07T23:23:01.342Z,2.27
2017-10-07T23:25:29.052Z,6.90
2017-10-07T23:27:56.682Z,3.17
2017-10-07T23:30:24.314Z,3.73
2017-10-07T23:32:52.017Z,1.87
2017-10-07T23:35:20.596Z,2.63
2017-10-07T23:37:48.234Z,4.63
2017-10-07T23:40:15.939Z,2.47
2017-10-07T23:42:43.579Z,2.63
2017-10-07T23:45:11.473Z,5.87
2017-10-07T23:47:39.173Z,2.40
2017-10-07T23:50:06.815Z,3.63
2017-10-07T23:52:34.443Z,8.03
2017-10-07T23:57:43.241Z,3.30
